Terminal Aerodrome Forecast
Issued by NWS Austin/San Antonio, TX

Home | Current Version | Previous Version | Text Only | Print | Product List | Glossary On
Versions: 1 2 3 4 5 6 7 8 9 10 11 12 13 14 15 16 17 18 19 20 21 22 23 24 25 26 27
000
FTUS44 KEWX 311737
TAFAUS
TAF
KAUS 311737Z 3118/0124 16006KT P6SM SCT015 BKN025
      TEMPO 3118/3121 4SM TSRA BKN020CB
     FM312100 15007KT P6SM BKN050 BKN250
      TEMPO 3121/0101 VRB15G25KT 4SM TSRA BKN035CB
     FM010700 15003KT P6SM OVC015
     FM011000 16003KT 5SM BR VCSH OVC007=

USA.gov is the U.S. government's official web portal to all federal, state and local government web resources and services.